createdAt,value
2019-05-19T00:02:56.400Z,136.07
2019-05-19T00:08:04.834Z,136.00
2019-05-19T00:13:14.002Z,139.77
2019-05-19T00:18:39.459Z,122.90
2019-05-19T00:23:47.038Z,132.37
2019-05-19T00:28:55.698Z,118.83
2019-05-19T00:34:04.798Z,115.50
2019-05-19T00:39:13.584Z,116.90
2019-05-19T00:44:25.762Z,90.97
2019-05-19T00:49:41.363Z,78.60
2019-05-19T00:54:45.349Z,73.67
2019-05-19T00:59:55.218Z,62.93
2019-05-19T01:05:04.134Z,58.53
2019-05-19T01:10:16.647Z,54.83
2019-05-19T01:15:26.121Z,60.47
2019-05-19T01:20:35.382Z,78.27
2019-05-19T01:25:57.825Z,57.57
2019-05-19T01:31:06.771Z,49.60
2019-05-19T01:36:17.224Z,53.73
2019-05-19T01:41:25.146Z,55.13
2019-05-19T01:46:38.489Z,58.30
2019-05-19T01:51:47.311Z,58.40
2019-05-19T01:56:55.291Z,55.73
2019-05-19T02:02:05.909Z,56.30
2019-05-19T02:07:15.040Z,51.23
2019-05-19T02:12:23.310Z,54.50
2019-05-19T02:17:31.972Z,54.03
2019-05-19T02:22:39.558Z,62.93
2019-05-19T02:27:50.887Z,56.40
2019-05-19T02:33:00.347Z,65.63
2019-05-19T02:38:08.529Z,55.93
2019-05-19T02:43:21.052Z,58.67
2019-05-19T02:48:32.206Z,62.83
2019-05-19T02:53:41.157Z,57.73
2019-05-19T02:59:05.826Z,58.27
2019-05-19T03:04:31.365Z,59.93
2019-05-19T03:09:40.222Z,58.27
2019-05-19T03:14:50.074Z,61.83
2019-05-19T03:20:17.756Z,61.73
2019-05-19T03:25:25.982Z,64.50
2019-05-19T03:30:53.741Z,59.47
2019-05-19T03:36:02.097Z,60.07
2019-05-19T03:41:11.261Z,65.23
2019-05-19T03:46:38.626Z,68.40
2019-05-19T03:51:48.214Z,59.10
2019-05-19T03:56:58.339Z,56.80
2019-05-19T04:02:08.960Z,58.80
2019-05-19T04:07:19.482Z,61.17
2019-05-19T04:12:27.124Z,63.57
2019-05-19T04:17:35.229Z,70.20
2019-05-19T04:22:43.959Z,77.63
2019-05-19T04:27:51.497Z,73.33
2019-05-19T04:33:00.613Z,77.07
2019-05-19T04:38:13.450Z,67.33
2019-05-19T04:43:23.841Z,67.97
2019-05-19T04:48:31.760Z,66.03
2019-05-19T04:53:40.969Z,67.30
2019-05-19T04:58:48.598Z,66.77
2019-05-19T05:03:59.799Z,60.23
2019-05-19T05:09:08.940Z,59.67
2019-05-19T05:14:19.620Z,60.40
2019-05-19T05:19:29.080Z,61.20
2019-05-19T05:24:40.275Z,55.87
2019-05-19T05:29:51.074Z,49.20
2019-05-19T05:35:00.585Z,49.63
2019-05-19T05:40:09.394Z,47.07
2019-05-19T05:45:47.933Z,52.07
2019-05-19T05:51:14.487Z,47.20
2019-05-19T05:56:26.937Z,45.30
2019-05-19T06:01:52.351Z,46.97
2019-05-19T06:07:01.600Z,46.07
2019-05-19T06:12:10.025Z,42.73
2019-05-19T06:17:18.999Z,45.03
2019-05-19T06:22:56.017Z,42.53
2019-05-19T06:27:53.555Z,40.57
2019-05-19T06:33:02.592Z,44.23
2019-05-19T06:38:10.847Z,46.13
2019-05-19T06:43:20.485Z,39.07
2019-05-19T06:48:28.384Z,39.77
2019-05-19T06:53:37.241Z,39.57
2019-05-19T06:58:48.530Z,37.63
2019-05-19T07:04:06.600Z,34.90
2019-05-19T07:09:18.037Z,35.20
2019-05-19T07:14:30.425Z,31.30
2019-05-19T07:19:39.918Z,34.43
2019-05-19T07:24:49.041Z,30.03
2019-05-19T07:29:59.363Z,31.40
2019-05-19T07:35:24.627Z,28.00
2019-05-19T07:40:49.773Z,32.43
2019-05-19T07:46:15.133Z,30.10
2019-05-19T07:51:41.181Z,28.07
2019-05-19T07:57:01.269Z,30.37
2019-05-19T08:02:09.515Z,28.17
2019-05-19T08:07:19.385Z,27.43
2019-05-19T08:12:45.887Z,25.87
2019-05-19T08:18:11.752Z,25.03
2019-05-19T08:23:37.939Z,24.47
2019-05-19T08:29:03.317Z,26.93
2019-05-19T08:34:31.260Z,24.67
2019-05-19T08:39:57.062Z,22.70
2019-05-19T08:45:22.701Z,23.33
2019-05-19T08:50:48.262Z,23.60
2019-05-19T08:56:09.289Z,22.03
2019-05-19T09:01:21.147Z,22.07
2019-05-19T09:06:46.781Z,23.83
2019-05-19T09:11:56.388Z,20.70
2019-05-19T09:17:05.537Z,20.93
2019-05-19T09:22:31.530Z,21.63
2019-05-19T09:27:57.298Z,21.00
2019-05-19T09:33:25.902Z,19.60
2019-05-19T09:38:51.434Z,19.07
2019-05-19T09:44:05.122Z,19.17
2019-05-19T09:49:35.288Z,19.27
2019-05-19T09:55:03.656Z,19.07
2019-05-19T10:00:20.057Z,19.40
2019-05-19T10:05:45.563Z,22.57
2019-05-19T10:11:13.160Z,22.13
2019-05-19T10:16:38.748Z,22.73
2019-05-19T10:22:08.402Z,22.37
2019-05-19T10:27:21.596Z,19.70
2019-05-19T10:32:30.998Z,19.10
2019-05-19T10:37:58.211Z,19.63
2019-05-19T10:43:08.291Z,22.10
2019-05-19T10:48:33.562Z,21.00
2019-05-19T10:54:14.451Z,18.43
2019-05-19T10:59:37.668Z,21.13
2019-05-19T11:04:47.715Z,19.07
2019-05-19T11:09:57.762Z,16.10
2019-05-19T11:15:09.675Z,23.03
2019-05-19T11:20:20.142Z,19.17
2019-05-19T11:25:33.827Z,16.20
2019-05-19T11:30:44.996Z,16.57
2019-05-19T11:36:08.265Z,15.90
2019-05-19T11:41:19.996Z,17.07
2019-05-19T11:46:45.928Z,20.63
2019-05-19T11:51:54.618Z,18.83
2019-05-19T11:57:08.811Z,18.10
2019-05-19T12:02:21.602Z,14.40
2019-05-19T12:07:31.080Z,16.20
2019-05-19T12:12:51.739Z,14.60
2019-05-19T12:18:01.778Z,15.17
2019-05-19T12:23:12.667Z,21.13
2019-05-19T12:28:24.555Z,18.57
2019-05-19T12:33:33.621Z,13.87
2019-05-19T12:39:00.455Z,14.83
2019-05-19T12:44:10.328Z,15.10
2019-05-19T12:49:25.844Z,12.17
2019-05-19T12:54:53.118Z,15.03
2019-05-19T13:00:15.763Z,13.10
2019-05-19T13:05:33.737Z,11.63
2019-05-19T13:11:03.441Z,9.70
2019-05-19T13:16:11.316Z,11.90
2019-05-19T13:21:28.013Z,20.77
2019-05-19T13:26:56.886Z,15.73
2019-05-19T13:32:07.498Z,14.47
2019-05-19T13:37:40.281Z,15.70
2019-05-19T13:42:49.743Z,19.23
2019-05-19T13:48:00.791Z,18.97
2019-05-19T13:53:23.483Z,14.60
2019-05-19T13:58:30.997Z,14.13
2019-05-19T14:03:39.236Z,18.43
2019-05-19T14:08:48.098Z,14.93
2019-05-19T14:13:57.207Z,12.43
2019-05-19T14:19:08.861Z,12.07
2019-05-19T14:24:23.277Z,14.53
2019-05-19T14:29:31.586Z,14.13
2019-05-19T14:34:42.609Z,16.33
2019-05-19T14:39:54.098Z,13.10
2019-05-19T14:45:07.210Z,12.23
2019-05-19T14:50:21.615Z,12.67
2019-05-19T14:55:31.342Z,18.73
2019-05-19T15:00:38.879Z,12.93
2019-05-19T15:05:49.012Z,13.33
2019-05-19T15:10:59.697Z,13.73
2019-05-19T15:16:06.925Z,15.67
2019-05-19T15:21:16.579Z,12.93
2019-05-19T15:26:24.682Z,13.60
2019-05-19T15:31:32.227Z,13.43
2019-05-19T15:36:51.293Z,11.10
2019-05-19T15:41:59.410Z,12.73
2019-05-19T15:47:11.053Z,12.80
2019-05-19T15:52:21.496Z,16.30
2019-05-19T15:57:30.022Z,11.07
2019-05-19T16:02:50.286Z,14.33
2019-05-19T16:08:01.144Z,10.43
2019-05-19T16:13:28.716Z,16.23
2019-05-19T16:18:55.494Z,11.73
2019-05-19T16:24:07.039Z,11.63
2019-05-19T16:29:20.008Z,8.07
2019-05-19T16:34:28.145Z,12.83
2019-05-19T16:39:47.831Z,7.60
2019-05-19T16:45:15.318Z,6.80
2019-05-19T16:50:25.012Z,9.37
2019-05-19T16:55:34.631Z,7.87
2019-05-19T17:01:01.487Z,9.60
2019-05-19T17:06:31.561Z,7.93
2019-05-19T17:11:43.168Z,8.53
2019-05-19T17:16:56.005Z,7.87
2019-05-19T17:22:08.706Z,8.67
2019-05-19T17:27:34.995Z,7.23
2019-05-19T17:32:47.419Z,8.27
2019-05-19T17:38:15.028Z,9.07
2019-05-19T17:43:41.261Z,9.90
2019-05-19T17:49:09.863Z,7.97
2019-05-19T17:54:20.491Z,9.60
2019-05-19T17:59:29.285Z,14.23
2019-05-19T18:04:40.450Z,10.60
2019-05-19T18:09:49.298Z,10.23
2019-05-19T18:14:59.931Z,9.90
2019-05-19T18:20:22.696Z,9.73
2019-05-19T18:25:19.485Z,8.27
2019-05-19T18:30:31.412Z,11.60
2019-05-19T18:35:40.475Z,9.37
2019-05-19T18:41:08.883Z,10.87
2019-05-19T18:46:35.989Z,8.70
2019-05-19T18:52:11.554Z,13.17
2019-05-19T18:57:27.526Z,9.50
2019-05-19T19:02:38.177Z,9.70
2019-05-19T19:07:49.488Z,8.90
2019-05-19T19:13:00.320Z,19.00
2019-05-19T19:18:09.597Z,14.67
2019-05-19T19:23:20.007Z,16.73
2019-05-19T19:28:30.867Z,12.67
2019-05-19T19:33:40.141Z,11.70
2019-05-19T19:39:07.677Z,11.07
2019-05-19T19:44:22.011Z,11.63
2019-05-19T19:49:32.546Z,14.37
2019-05-19T19:54:44.193Z,11.23
2019-05-19T19:59:52.422Z,12.40
2019-05-19T20:05:08.787Z,12.77
2019-05-19T20:10:18.589Z,13.90
2019-05-19T20:15:29.340Z,14.10
2019-05-19T20:20:38.377Z,14.00
2019-05-19T20:25:48.312Z,12.97
2019-05-19T20:30:58.402Z,17.70
2019-05-19T20:36:09.244Z,16.40
2019-05-19T20:41:19.610Z,17.73
2019-05-19T20:46:30.014Z,17.10
2019-05-19T20:51:39.877Z,18.37
2019-05-19T20:56:54.950Z,17.80
2019-05-19T21:02:06.129Z,17.77
2019-05-19T21:07:16.952Z,16.80
2019-05-19T21:12:43.443Z,19.70
2019-05-19T21:18:01.844Z,21.53
2019-05-19T21:23:11.797Z,17.50
2019-05-19T21:28:23.141Z,17.60
2019-05-19T21:33:35.396Z,18.03
2019-05-19T21:38:44.871Z,16.70
2019-05-19T21:43:56.563Z,17.57
2019-05-19T21:49:05.776Z,22.70
2019-05-19T21:54:15.161Z,18.23
2019-05-19T21:59:27.890Z,17.00
2019-05-19T22:04:53.649Z,16.50
2019-05-19T22:10:02.363Z,25.20
2019-05-19T22:15:18.944Z,17.93
2019-05-19T22:20:44.670Z,16.93
2019-05-19T22:26:11.334Z,19.80
2019-05-19T22:31:36.665Z,19.23
2019-05-19T22:36:54.937Z,19.83
2019-05-19T22:42:20.782Z,18.50
2019-05-19T23:09:03.030Z,27.67
2019-05-19T23:14:13.120Z,24.87
2019-05-19T23:19:23.316Z,25.00
2019-05-19T23:24:51.528Z,28.47
2019-05-19T23:30:18.792Z,22.13
2019-05-19T23:35:34.905Z,28.07
2019-05-19T23:41:02.337Z,27.17
2019-05-19T23:46:30.646Z,27.10
2019-05-19T23:51:56.021Z,28.33
2019-05-19T23:57:22.724Z,29.97
